• Join FlightAware (Why Join?)
  • Login
  • US Flag 
09:11AM EDT


 

Airport Tracker/Info


-or-


 

Live Flight TrackerFlight Track Log ✈ XOJ549 ✈ 27-Jun-2013 ✈ KHTO - KHPN

Flight Track Log - Related Links

Times and Time Zones

All times are in EDT time to prevent confusion due to time zone crossing. See the XOJ549 flight status page for this flight to view local times or setup timezone preferences in your user account.

Time Position Orientation Groundspeed Altitude Reporting Facility
EDT Latitude Longitude Course Direction KTS MPH feet Rate Location/Type
02:49PM 40.9333 -72.3000 285° West 284 327 6,000  Level New York TRACON
02:50PM 41.0167 -72.3333 343° North 287 330 6,000  Level New York TRACON
02:51PM 41.0833 -72.3833 331° Northwest 292 336 6,000  Level New York TRACON
02:52PM 41.0833 -72.4833 270° West 268 308 6,100  Climbing New York TRACON
02:53PM 41.1000 -72.5833 283° West 272 313 6,100  Level New York TRACON
02:54PM 41.1167 -72.6833 283° West 275 316 6,100  Level New York TRACON
02:55PM 41.1167 -72.7833 270° West 272 313 6,100  Level New York TRACON
02:56PM 41.1333 -72.8833 283° West 273 314 6,100  Level New York TRACON
02:57PM 41.1500 -72.9833 283° West 271 312 6,100  Level New York TRACON
02:58PM 41.1500 -73.0833 270° West 267 307 6,100 -540 Level New York TRACON
02:59PM 41.1667 -73.1833 283° West 266 306 5,100 -1,020 Descending New York TRACON
03:00PM 41.1667 -73.2833 270° West 257 296 4,100 -540 Descending New York TRACON
03:01PM 41.1833 -73.3667 285° West 278 320 4,100  Level New York TRACON
03:02PM 41.1833 -73.4833 270° West 268 308 4,100 -600 Level New York TRACON
03:03PM 41.2000 -73.5833 283° West 261 300 2,900 -1,020 Descending New York TRACON
03:04PM 41.2167 -73.6667 285° West 261 300 2,100 -480 Descending New York TRACON
03:05PM 41.2000 -73.7500 255° West 241 277 2,100  Level New York TRACON
03:06PM 41.1500 -73.7667 194° South 162 186 2,100 -300 Level New York TRACON
03:07PM 41.1167 -73.7500 159° South 116 133 1,600 -600 Descending New York TRACON
03:08PM 41.1000 -73.7333 143° Southeast 119 137 1,000 -600 Descending New York TRACON
03:10PM 41.0667 -73.7000 236° Southwest  Level FlightAware Approximate
03:17PM 41.0669 -73.7076 236° Southwest  Level Estimated
03:18PM 41.0667 -73.7000 236° Southwest  Level FlightAware Approximate